Time;durP1;ratioP1;P1;durP2;ratioP2;P2;SDS_P1;SDS_P2;PMS_P1;PMS_P2;Temp;Humidity;BMP_temperature;BMP_pressure;BME280_temperature;BME280_humidity;BME280_pressure;Samples;Min_cycle;Max_cycle;Signal;HPM_P1;HPM_P2
2022/03/16 00:01:55;;;;;;;4.47;3.37;;;;;;;;;;5085650;28;20187;-55
2022/03/16 00:04:22;;;;;;;4.20;3.80;;;;;;;;;;5085726;28;20258;-56
2022/03/16 00:06:48;;;;;;;5.17;3.90;;;;;;;;;;5063077;28;20647;-55
2022/03/16 00:09:15;;;;;;;3.60;3.10;;;;;;;;;;5073701;28;20172;-57
2022/03/16 00:11:41;;;;;;;5.07;3.73;;;;;;;;;;5078013;28;20180;-56
2022/03/16 00:14:07;;;;;;;5.17;3.70;;;;;;;;;;5070315;28;20577;-56
2022/03/16 00:16:34;;;;;;;3.77;3.13;;;;;;;;;;5082227;28;20180;-55
2022/03/16 00:19:00;;;;;;;4.10;3.53;;;;;;;;;;5076465;28;20191;-57
2022/03/16 00:21:27;;;;;;;4.10;3.70;;;;;;;;;;5066559;28;20187;-55
2022/03/16 00:23:53;;;;;;;4.27;3.80;;;;;;;;;;5084687;28;20176;-56
2022/03/16 00:26:20;;;;;;;4.07;3.57;;;;;;;;;;5070058;28;20191;-56
2022/03/16 00:28:46;;;;;;;4.50;3.83;;;;;;;;;;5089732;28;20167;-55
2022/03/16 00:31:13;;;;;;;4.10;3.70;;;;;;;;;;5070217;28;20267;-58
2022/03/16 00:33:39;;;;;;;4.90;3.60;;;;;;;;;;5071232;28;20586;-55
2022/03/16 00:36:06;;;;;;;4.10;3.70;;;;;;;;;;5069907;28;20186;-56
2022/03/16 00:38:32;;;;;;;4.27;3.80;;;;;;;;;;5068723;28;20202;-57
2022/03/16 00:40:58;;;;;;;3.83;3.37;;;;;;;;;;5081561;28;20646;-56
2022/03/16 00:43:25;;;;;;;4.03;3.63;;;;;;;;;;5053402;28;20264;-55
2022/03/16 00:45:52;;;;;;;4.40;4.00;;;;;;;;;;5087989;28;20235;-56
2022/03/16 00:48:18;;;;;;;4.03;3.50;;;;;;;;;;5085481;28;20643;-56
2022/03/16 00:50:44;;;;;;;4.27;3.80;;;;;;;;;;5082445;28;20250;-56
2022/03/16 00:53:11;;;;;;;4.80;3.97;;;;;;;;;;5052289;28;20179;-56
2022/03/16 00:55:37;;;;;;;4.10;3.70;;;;;;;;;;5066308;28;20222;-57
2022/03/16 00:58:04;;;;;;;3.60;3.30;;;;;;;;;;5070090;28;20207;-56
2022/03/16 01:00:30;;;;;;;3.97;3.47;;;;;;;;;;5086379;28;20196;-58
2022/03/16 01:02:56;;;;;;;4.13;3.73;;;;;;;;;;5070007;28;20611;-56
2022/03/16 01:05:22;;;;;;;4.53;4.10;;;;;;;;;;5069612;28;20195;-57
2022/03/16 01:07:49;;;;;;;4.60;3.80;;;;;;;;;;5077747;28;20235;-56
2022/03/16 01:10:15;;;;;;;4.40;4.00;;;;;;;;;;5062584;28;20675;-57
2022/03/16 01:12:41;;;;;;;5.70;4.00;;;;;;;;;;5052407;28;20311;-56
2022/03/16 01:15:08;;;;;;;4.10;3.70;;;;;;;;;;5068396;28;20191;-56
2022/03/16 01:17:34;;;;;;;4.13;3.57;;;;;;;;;;5047781;28;20553;-56
2022/03/16 01:20:01;;;;;;;4.23;3.83;;;;;;;;;;5049090;28;20661;-56
2022/03/16 01:22:27;;;;;;;5.20;4.43;;;;;;;;;;5039849;28;20181;-56
2022/03/16 01:24:56;;;;;;;4.10;3.70;;;;;;;;;;5047073;28;20564;-58
2022/03/16 01:27:22;;;;;;;4.60;4.17;;;;;;;;;;5062657;28;20230;-56
2022/03/16 01:29:48;;;;;;;6.37;3.97;;;;;;;;;;5060913;28;20695;-55
2022/03/16 01:32:14;;;;;;;5.90;4.30;;;;;;;;;;5068350;28;20180;-56
2022/03/16 01:34:40;;;;;;;6.17;4.27;;;;;;;;;;5068119;28;20180;-56
2022/03/16 01:37:06;;;;;;;4.97;4.13;;;;;;;;;;5065304;28;20693;-57
2022/03/16 01:39:33;;;;;;;4.17;3.77;;;;;;;;;;5063402;28;20703;-56
2022/03/16 01:41:59;;;;;;;4.40;4.00;;;;;;;;;;5065571;28;20177;-56
2022/03/16 01:44:58;;;;;;;4.53;4.10;;;;;;;;;;5048232;28;20201;-56
2022/03/16 01:47:26;;;;;;;4.23;3.87;;;;;;;;;;5030492;28;20185;-56
2022/03/16 01:49:54;;;;;;;4.40;4.00;;;;;;;;;;5043941;28;20197;-57
2022/03/16 01:52:25;;;;;;;5.33;4.50;;;;;;;;;;5048699;28;20172;-57
2022/03/16 01:54:52;;;;;;;5.13;4.63;;;;;;;;;;5065065;28;20648;-57
2022/03/16 01:57:18;;;;;;;4.97;4.13;;;;;;;;;;5050745;28;20212;-57
2022/03/16 01:59:45;;;;;;;7.07;4.37;;;;;;;;;;5049241;28;20184;-58
2022/03/16 02:02:12;;;;;;;7.87;5.00;;;;;;;;;;5058505;28;20185;-56
2022/03/16 02:04:39;;;;;;;4.90;4.50;;;;;;;;;;5014549;28;20192;-57
2022/03/16 02:07:05;;;;;;;5.57;4.97;;;;;;;;;;5046190;28;20179;-58
2022/03/16 02:09:32;;;;;;;4.50;4.10;;;;;;;;;;5065736;28;20168;-57
2022/03/16 02:11:59;;;;;;;5.07;4.60;;;;;;;;;;5059161;28;20212;-58
2022/03/16 02:14:29;;;;;;;5.23;4.27;;;;;;;;;;5032923;28;20172;-56
2022/03/16 02:16:56;;;;;;;5.57;4.40;;;;;;;;;;5044191;28;20180;-56
2022/03/16 02:19:23;;;;;;;5.80;4.30;;;;;;;;;;5044721;28;20664;-56
2022/03/16 02:21:55;;;;;;;4.77;4.27;;;;;;;;;;5035481;28;20189;-57
2022/03/16 02:24:25;;;;;;;6.17;4.63;;;;;;;;;;5044422;28;20208;-56
2022/03/16 02:26:52;;;;;;;5.40;4.90;;;;;;;;;;5048172;28;20606;-56
2022/03/16 02:29:18;;;;;;;5.20;4.70;;;;;;;;;;5049433;28;20555;-58
2022/03/16 02:31:45;;;;;;;6.47;4.17;;;;;;;;;;5049447;28;20181;-58
2022/03/16 02:34:11;;;;;;;5.00;4.50;;;;;;;;;;5040270;28;20180;-55
2022/03/16 02:36:37;;;;;;;7.10;4.77;;;;;;;;;;5040783;28;20234;-56
2022/03/16 02:39:04;;;;;;;6.47;5.13;;;;;;;;;;5055226;28;20260;-56
2022/03/16 02:41:30;;;;;;;6.43;4.70;;;;;;;;;;5048848;28;20203;-56
2022/03/16 02:43:56;;;;;;;4.63;4.23;;;;;;;;;;5064380;28;20211;-57
2022/03/16 02:46:23;;;;;;;5.57;4.43;;;;;;;;;;5046349;28;20216;-56
2022/03/16 02:48:49;;;;;;;5.60;4.87;;;;;;;;;;5049412;28;20554;-56
2022/03/16 02:51:16;;;;;;;4.97;4.47;;;;;;;;;;5019640;28;20181;-56
2022/03/16 02:53:43;;;;;;;5.23;4.60;;;;;;;;;;5061640;28;20236;-56
2022/03/16 02:56:09;;;;;;;4.80;4.30;;;;;;;;;;5042052;28;20207;-55
2022/03/16 02:58:35;;;;;;;4.87;4.37;;;;;;;;;;5055223;28;20226;-57
2022/03/16 03:01:01;;;;;;;9.43;5.37;;;;;;;;;;5042061;28;20550;-57
2022/03/16 03:03:28;;;;;;;5.30;4.80;;;;;;;;;;5044247;28;20198;-56
2022/03/16 03:05:55;;;;;;;5.87;4.70;;;;;;;;;;5061893;28;20251;-56
2022/03/16 03:08:21;;;;;;;5.20;4.70;;;;;;;;;;5052360;28;20644;-58
2022/03/16 03:10:49;;;;;;;5.23;4.73;;;;;;;;;;5048100;28;20648;-55
2022/03/16 03:13:16;;;;;;;5.17;4.30;;;;;;;;;;5048483;28;20265;-55
2022/03/16 03:15:42;;;;;;;5.97;4.87;;;;;;;;;;5065806;28;20197;-56
2022/03/16 03:18:09;;;;;;;5.30;4.80;;;;;;;;;;5068198;28;20566;-56
2022/03/16 03:20:35;;;;;;;5.10;4.60;;;;;;;;;;5065729;28;20550;-57
2022/03/16 03:23:02;;;;;;;5.20;4.10;;;;;;;;;;5079213;28;20168;-56
2022/03/16 03:25:28;;;;;;;5.43;4.60;;;;;;;;;;5060574;28;20196;-58
2022/03/16 03:27:55;;;;;;;4.50;4.10;;;;;;;;;;5090168;28;20179;-56
2022/03/16 03:30:21;;;;;;;5.40;4.73;;;;;;;;;;5071169;28;20172;-56
2022/03/16 03:32:47;;;;;;;4.87;4.37;;;;;;;;;;5090005;28;20645;-56
2022/03/16 03:35:14;;;;;;;6.97;4.77;;;;;;;;;;5069190;28;20780;-56
2022/03/16 03:37:40;;;;;;;5.20;4.70;;;;;;;;;;5083303;28;20697;-57
2022/03/16 03:40:07;;;;;;;5.30;4.80;;;;;;;;;;5059836;28;20275;-56
2022/03/16 03:42:34;;;;;;;7.03;5.10;;;;;;;;;;5054306;28;20267;-56
2022/03/16 03:45:03;;;;;;;5.87;4.97;;;;;;;;;;5069181;28;20203;-57
2022/03/16 03:47:29;;;;;;;5.50;4.80;;;;;;;;;;5071522;28;20266;-56
2022/03/16 03:49:56;;;;;;;5.30;4.43;;;;;;;;;;5066178;28;20183;-56
2022/03/16 03:52:22;;;;;;;5.37;4.70;;;;;;;;;;5068271;28;20203;-57
2022/03/16 03:54:48;;;;;;;5.70;5.10;;;;;;;;;;5055257;28;20175;-58
2022/03/16 03:57:14;;;;;;;7.43;4.87;;;;;;;;;;5088275;28;20207;-56
2022/03/16 03:59:41;;;;;;;5.80;4.50;;;;;;;;;;5064623;28;20191;-56
2022/03/16 04:02:07;;;;;;;6.13;4.37;;;;;;;;;;5070333;28;20329;-57
2022/03/16 04:04:33;;;;;;;5.50;5.00;;;;;;;;;;5066179;28;20283;-56
2022/03/16 04:07:00;;;;;;;5.20;4.70;;;;;;;;;;5068294;28;20187;-56
2022/03/16 04:09:26;;;;;;;6.13;5.07;;;;;;;;;;5065131;28;20179;-55
2022/03/16 04:11:52;;;;;;;5.33;4.53;;;;;;;;;;5065898;28;20743;-56
2022/03/16 04:14:18;;;;;;;5.83;4.97;;;;;;;;;;5088252;28;20191;-56
2022/03/16 04:16:44;;;;;;;9.47;8.77;;;;;;;;;;5064364;28;20642;-56
2022/03/16 04:19:11;;;;;;;5.40;4.90;;;;;;;;;;5067973;28;20195;-56
2022/03/16 04:21:37;;;;;;;7.13;5.20;;;;;;;;;;5070012;28;20547;-56
2022/03/16 04:24:04;;;;;;;4.87;4.30;;;;;;;;;;5084894;28;20262;-56
2022/03/16 04:26:31;;;;;;;5.70;4.87;;;;;;;;;;5087358;28;20187;-55
2022/03/16 04:28:57;;;;;;;6.20;4.60;;;;;;;;;;5088183;28;20601;-56
2022/03/16 04:31:24;;;;;;;6.10;5.13;;;;;;;;;;5068535;28;20183;-54
2022/03/16 04:33:50;;;;;;;5.23;4.73;;;;;;;;;;5087477;28;20180;-55
2022/03/16 04:36:16;;;;;;;6.40;5.40;;;;;;;;;;5067611;28;20670;-57
2022/03/16 04:38:43;;;;;;;5.20;4.70;;;;;;;;;;5075407;28;20227;-55
2022/03/16 04:41:09;;;;;;;7.63;5.50;;;;;;;;;;5068904;28;20744;-57
2022/03/16 04:43:35;;;;;;;5.77;4.70;;;;;;;;;;5065760;28;20172;-56
2022/03/16 04:46:02;;;;;;;5.70;4.70;;;;;;;;;;5069711;28;20207;-56
2022/03/16 04:48:28;;;;;;;5.20;4.67;;;;;;;;;;5063051;28;20263;-56
2022/03/16 04:50:54;;;;;;;6.10;4.97;;;;;;;;;;5070568;28;20184;-56
2022/03/16 04:53:20;;;;;;;5.90;4.70;;;;;;;;;;5059616;28;20183;-55
2022/03/16 04:55:47;;;;;;;5.97;4.50;;;;;;;;;;5064328;28;20627;-57
2022/03/16 04:58:13;;;;;;;5.70;4.70;;;;;;;;;;5088490;28;20303;-56
2022/03/16 05:00:40;;;;;;;5.00;4.40;;;;;;;;;;5069697;28;20187;-56
2022/03/16 05:03:06;;;;;;;5.33;4.83;;;;;;;;;;5070637;28;20278;-56
2022/03/16 05:05:33;;;;;;;4.97;4.43;;;;;;;;;;5068949;28;20239;-57
2022/03/16 05:07:59;;;;;;;6.07;4.47;;;;;;;;;;5072286;28;20247;-55
2022/03/16 05:10:28;;;;;;;5.80;5.07;;;;;;;;;;5067498;28;20180;-56
2022/03/16 05:12:55;;;;;;;4.80;4.30;;;;;;;;;;5068822;28;20224;-57
2022/03/16 05:15:22;;;;;;;5.13;4.50;;;;;;;;;;5059552;28;20549;-56
2022/03/16 05:17:48;;;;;;;4.67;4.17;;;;;;;;;;5068009;28;20183;-56
2022/03/16 05:20:15;;;;;;;5.17;4.40;;;;;;;;;;5058946;28;20194;-58
2022/03/16 05:22:42;;;;;;;4.40;4.00;;;;;;;;;;5085037;28;20179;-55
2022/03/16 05:25:09;;;;;;;4.33;3.93;;;;;;;;;;5088450;28;20420;-56
2022/03/16 05:27:35;;;;;;;4.73;4.17;;;;;;;;;;5062147;28;20552;-56
2022/03/16 05:30:01;;;;;;;5.17;4.60;;;;;;;;;;5077996;28;20176;-56
2022/03/16 05:32:28;;;;;;;5.53;5.03;;;;;;;;;;5067348;28;20681;-55
2022/03/16 05:34:54;;;;;;;4.53;4.13;;;;;;;;;;5074254;28;20184;-56
2022/03/16 05:37:20;;;;;;;5.53;5.03;;;;;;;;;;5074661;28;20184;-59
2022/03/16 05:39:46;;;;;;;5.30;4.77;;;;;;;;;;5082131;28;20215;-55
2022/03/16 05:42:12;;;;;;;4.63;4.13;;;;;;;;;;5078672;28;20263;-55
2022/03/16 05:44:39;;;;;;;5.00;3.97;;;;;;;;;;5080826;28;20207;-56
2022/03/16 05:47:06;;;;;;;4.83;4.17;;;;;;;;;;5084201;28;20178;-55
2022/03/16 05:49:32;;;;;;;4.73;4.23;;;;;;;;;;5051631;28;20632;-57
2022/03/16 05:51:58;;;;;;;5.40;4.43;;;;;;;;;;5055093;28;20188;-55
2022/03/16 05:54:25;;;;;;;5.20;3.67;;;;;;;;;;5085387;28;20182;-56
2022/03/16 05:56:51;;;;;;;5.03;4.23;;;;;;;;;;5062983;28;20282;-55
2022/03/16 05:59:17;;;;;;;4.73;3.97;;;;;;;;;;5060354;28;20190;-56
2022/03/16 06:01:44;;;;;;;5.13;4.10;;;;;;;;;;5076195;28;20180;-57
2022/03/16 06:04:10;;;;;;;4.27;3.83;;;;;;;;;;5069872;28;20179;-56
2022/03/16 06:06:36;;;;;;;6.00;4.10;;;;;;;;;;5086149;28;20175;-56
2022/03/16 06:09:04;;;;;;;4.67;3.83;;;;;;;;;;5088730;28;20244;-56
2022/03/16 06:11:30;;;;;;;4.93;4.43;;;;;;;;;;5059632;28;20179;-55
2022/03/16 06:13:57;;;;;;;7.03;4.20;;;;;;;;;;5070682;28;20182;-56
2022/03/16 06:16:26;;;;;;;4.70;3.90;;;;;;;;;;5068374;28;20260;-56
2022/03/16 06:18:53;;;;;;;5.73;4.13;;;;;;;;;;5070241;28;20175;-55
2022/03/16 06:21:20;;;;;;;4.90;4.40;;;;;;;;;;5069300;28;20196;-56
2022/03/16 06:23:46;;;;;;;4.40;4.00;;;;;;;;;;5065169;28;20712;-55
2022/03/16 06:26:12;;;;;;;4.93;4.43;;;;;;;;;;5064681;28;20212;-56
2022/03/16 06:28:38;;;;;;;5.67;4.20;;;;;;;;;;5084657;28;20240;-56
2022/03/16 06:31:04;;;;;;;5.60;4.43;;;;;;;;;;5070467;28;20180;-55
2022/03/16 06:33:31;;;;;;;4.77;3.87;;;;;;;;;;5070018;28;20180;-55
2022/03/16 06:35:57;;;;;;;5.97;4.60;;;;;;;;;;5067239;28;20693;-56
2022/03/16 06:38:23;;;;;;;8.60;5.33;;;;;;;;;;5064837;28;20219;-57
2022/03/16 06:40:49;;;;;;;7.20;5.27;;;;;;;;;;5081221;28;20199;-58
2022/03/16 06:43:15;;;;;;;6.87;5.23;;;;;;;;;;5069464;28;20180;-56
2022/03/16 06:45:43;;;;;;;5.73;5.10;;;;;;;;;;5069872;28;20289;-57
2022/03/16 06:48:09;;;;;;;5.57;4.93;;;;;;;;;;5087072;28;20229;-56
2022/03/16 06:50:35;;;;;;;5.80;4.97;;;;;;;;;;5070016;28;20182;-56
2022/03/16 06:53:01;;;;;;;5.73;4.80;;;;;;;;;;5087064;28;20183;-56
2022/03/16 06:55:27;;;;;;;6.40;5.03;;;;;;;;;;5087952;28;20187;-58
2022/03/16 06:57:54;;;;;;;6.03;4.93;;;;;;;;;;5090634;28;20202;-57
2022/03/16 07:00:20;;;;;;;6.90;5.43;;;;;;;;;;5112813;28;20201;-57
2022/03/16 07:02:50;;;;;;;6.13;5.13;;;;;;;;;;5091531;28;20626;-57
2022/03/16 07:05:16;;;;;;;5.60;5.10;;;;;;;;;;5092582;28;20206;-57
2022/03/16 07:07:42;;;;;;;5.67;5.07;;;;;;;;;;5090695;28;20657;-57
2022/03/16 07:10:08;;;;;;;5.67;5.17;;;;;;;;;;5059866;28;20180;-58
2022/03/16 07:12:34;;;;;;;9.60;5.80;;;;;;;;;;5088894;28;20694;-58
2022/03/16 07:15:00;;;;;;;8.03;5.97;;;;;;;;;;5089567;28;20191;-57
2022/03/16 07:17:26;;;;;;;9.97;6.10;;;;;;;;;;5091797;28;20179;-57
2022/03/16 07:19:52;;;;;;;11.27;5.50;;;;;;;;;;5092303;28;20175;-56
2022/03/16 07:22:18;;;;;;;7.10;6.20;;;;;;;;;;5091159;28;20192;-58
2022/03/16 07:24:45;;;;;;;7.03;6.23;;;;;;;;;;5091235;28;20272;-58
2022/03/16 07:27:12;;;;;;;5.80;5.20;;;;;;;;;;5091345;28;20199;-57
2022/03/16 07:29:38;;;;;;;6.93;5.80;;;;;;;;;;5092160;28;20171;-57
2022/03/16 07:32:05;;;;;;;7.27;5.77;;;;;;;;;;5078815;28;20212;-58
2022/03/16 07:34:31;;;;;;;8.27;6.13;;;;;;;;;;5071755;28;20169;-57
2022/03/16 07:36:57;;;;;;;6.73;5.47;;;;;;;;;;5081490;28;20187;-57
2022/03/16 07:39:23;;;;;;;7.23;5.80;;;;;;;;;;5082138;28;20675;-58
2022/03/16 07:41:49;;;;;;;7.10;5.50;;;;;;;;;;5081313;28;20233;-58
2022/03/16 07:44:15;;;;;;;7.17;6.47;;;;;;;;;;5072926;28;20635;-57
2022/03/16 07:46:41;;;;;;;7.93;6.40;;;;;;;;;;5090354;28;20172;-57
2022/03/16 07:49:07;;;;;;;5.73;5.20;;;;;;;;;;5106588;28;20183;-56
2022/03/16 07:51:33;;;;;;;8.77;6.17;;;;;;;;;;5088071;28;20229;-57
2022/03/16 07:53:59;;;;;;;8.20;6.10;;;;;;;;;;5090546;28;20571;-57
2022/03/16 07:56:25;;;;;;;7.57;6.87;;;;;;;;;;5090624;28;20253;-58
2022/03/16 07:58:54;;;;;;;9.70;6.43;;;;;;;;;;5090531;28;20179;-57
2022/03/16 08:01:20;;;;;;;6.97;6.27;;;;;;;;;;5090442;28;20188;-57
2022/03/16 08:03:47;;;;;;;7.20;6.40;;;;;;;;;;5078400;28;20195;-58
2022/03/16 08:06:13;;;;;;;8.33;6.70;;;;;;;;;;5090667;28;20192;-58
2022/03/16 08:08:39;;;;;;;9.33;7.17;;;;;;;;;;5088509;28;20187;-58
2022/03/16 08:11:06;;;;;;;8.27;6.73;;;;;;;;;;5089536;28;20201;-58
2022/03/16 08:13:33;;;;;;;7.63;6.67;;;;;;;;;;5090243;28;20257;-57
2022/03/16 08:15:59;;;;;;;11.00;6.43;;;;;;;;;;5090690;28;20187;-57
2022/03/16 08:18:25;;;;;;;8.63;6.53;;;;;;;;;;5062062;28;20180;-58
2022/03/16 08:20:51;;;;;;;6.67;6.07;;;;;;;;;;5065565;28;20206;-58
2022/03/16 08:23:17;;;;;;;8.17;7.37;;;;;;;;;;5085407;28;20219;-57
2022/03/16 08:25:43;;;;;;;9.03;6.87;;;;;;;;;;5081873;28;20736;-57
2022/03/16 08:28:09;;;;;;;7.50;6.60;;;;;;;;;;5090465;28;20223;-57
2022/03/16 08:30:35;;;;;;;7.77;6.97;;;;;;;;;;5090097;28;20211;-58
2022/03/16 08:33:02;;;;;;;7.83;7.03;;;;;;;;;;5090646;28;20168;-58
2022/03/16 08:35:28;;;;;;;8.93;6.67;;;;;;;;;;5089529;28;20180;-57
2022/03/16 08:37:55;;;;;;;9.43;7.00;;;;;;;;;;5087961;28;20176;-58
2022/03/16 08:40:21;;;;;;;7.83;6.53;;;;;;;;;;5092856;28;20203;-58
2022/03/16 08:42:48;;;;;;;8.07;6.90;;;;;;;;;;5089960;28;20188;-57
2022/03/16 08:45:14;;;;;;;7.77;6.53;;;;;;;;;;5090643;28;20724;-58
2022/03/16 08:47:40;;;;;;;8.33;7.17;;;;;;;;;;5089648;28;20186;-58
2022/03/16 08:50:06;;;;;;;7.57;6.50;;;;;;;;;;5089957;28;20237;-58
2022/03/16 08:52:32;;;;;;;9.17;7.40;;;;;;;;;;5091057;28;20184;-57
2022/03/16 08:54:59;;;;;;;7.23;6.07;;;;;;;;;;5089994;28;20187;-57
2022/03/16 08:57:25;;;;;;;9.60;6.97;;;;;;;;;;5089476;28;20199;-58
2022/03/16 08:59:53;;;;;;;7.40;6.57;;;;;;;;;;5090485;28;20258;-56
2022/03/16 09:02:19;;;;;;;7.13;5.90;;;;;;;;;;5081534;28;20175;-56
2022/03/16 09:04:45;;;;;;;11.43;6.53;;;;;;;;;;5096655;28;20241;-57
2022/03/16 09:07:11;;;;;;;6.90;6.20;;;;;;;;;;5088320;28;20183;-56
2022/03/16 09:09:37;;;;;;;7.63;6.03;;;;;;;;;;5085365;28;20222;-56
2022/03/16 09:12:03;;;;;;;7.67;6.80;;;;;;;;;;5088560;28;20710;-57
2022/03/16 09:14:29;;;;;;;6.43;5.83;;;;;;;;;;5090258;28;20229;-56
2022/03/16 09:16:56;;;;;;;7.60;6.20;;;;;;;;;;5077492;28;20644;-57
2022/03/16 09:19:22;;;;;;;8.07;6.57;;;;;;;;;;5080212;28;20313;-57
2022/03/16 09:21:48;;;;;;;7.00;6.10;;;;;;;;;;5087987;28;20179;-57
2022/03/16 09:24:15;;;;;;;7.30;6.23;;;;;;;;;;5089176;28;20576;-57
2022/03/16 09:26:42;;;;;;;7.00;6.30;;;;;;;;;;5078429;28;20423;-57
2022/03/16 09:29:08;;;;;;;6.70;6.00;;;;;;;;;;5089943;28;20639;-57
2022/03/16 09:31:36;;;;;;;7.37;6.43;;;;;;;;;;5080715;28;20233;-57
2022/03/16 09:34:05;;;;;;;7.17;6.47;;;;;;;;;;5078005;28;20179;-58
2022/03/16 09:36:32;;;;;;;6.97;6.20;;;;;;;;;;5070074;28;20188;-58
2022/03/16 09:38:58;;;;;;;7.37;6.67;;;;;;;;;;5073183;28;20184;-57
2022/03/16 09:41:24;;;;;;;6.10;5.50;;;;;;;;;;5088763;28;20176;-57
2022/03/16 09:43:51;;;;;;;7.50;5.93;;;;;;;;;;5089337;28;20183;-57
2022/03/16 09:46:22;;;;;;;7.43;6.63;;;;;;;;;;5088946;28;20192;-58
2022/03/16 09:48:48;;;;;;;13.00;7.50;;;;;;;;;;5089303;28;20694;-57
2022/03/16 09:51:16;;;;;;;8.57;6.60;;;;;;;;;;5088614;28;20184;-58
2022/03/16 09:53:42;;;;;;;8.13;6.40;;;;;;;;;;5087015;28;20680;-57
2022/03/16 09:56:09;;;;;;;7.80;6.83;;;;;;;;;;5090668;28;20640;-57
2022/03/16 09:58:35;;;;;;;6.13;5.53;;;;;;;;;;5103781;28;20186;-57
2022/03/16 10:01:05;;;;;;;7.20;6.03;;;;;;;;;;5055852;28;20209;-57
2022/03/16 10:03:31;;;;;;;8.63;7.43;;;;;;;;;;5077024;28;20668;-58
2022/03/16 10:05:58;;;;;;;8.57;7.03;;;;;;;;;;5063569;28;20227;-58
2022/03/16 10:08:27;;;;;;;6.93;6.23;;;;;;;;;;5086954;28;20198;-57
2022/03/16 10:13:48;;;;;;;8.53;6.30;;;;;;;;;;5070503;28;20439;-58
2022/03/16 10:16:14;;;;;;;6.47;5.87;;;;;;;;;;5088647;28;20175;-58
2022/03/16 10:18:41;;;;;;;6.50;5.80;;;;;;;;;;5070152;28;20232;-58
2022/03/16 10:21:08;;;;;;;7.70;6.13;;;;;;;;;;5056127;28;20184;-58
2022/03/16 10:23:35;;;;;;;6.73;6.03;;;;;;;;;;5068601;28;20274;-58
2022/03/16 10:26:03;;;;;;;6.87;6.10;;;;;;;;;;5069762;28;20743;-57
2022/03/16 10:28:31;;;;;;;8.53;6.83;;;;;;;;;;5071100;28;20626;-57
2022/03/16 10:31:02;;;;;;;6.57;5.87;;;;;;;;;;5090799;28;20387;-57
2022/03/16 10:33:29;;;;;;;5.73;5.23;;;;;;;;;;5088203;28;20175;-57
2022/03/16 10:36:03;;;;;;;6.37;5.77;;;;;;;;;;5089536;28;20179;-57
2022/03/16 10:38:39;;;;;;;6.97;5.57;;;;;;;;;;5092864;28;20215;-57
2022/03/16 10:41:13;;;;;;;6.63;5.43;;;;;;;;;;5074027;28;20179;-57
2022/03/16 10:46:38;;;;;;;5.37;4.83;;;;;;;;;;5088189;28;20207;-56
2022/03/16 10:49:04;;;;;;;6.17;5.57;;;;;;;;;;5087582;28;20183;-57
2022/03/16 10:51:30;;;;;;;8.00;5.63;;;;;;;;;;5087197;28;20228;-57
2022/03/16 10:53:58;;;;;;;5.20;4.70;;;;;;;;;;5069105;28;20175;-57
2022/03/16 10:56:25;;;;;;;6.10;5.53;;;;;;;;;;5088116;28;20571;-57
2022/03/16 10:58:52;;;;;;;5.97;5.37;;;;;;;;;;5098386;28;20782;-56
2022/03/16 11:01:19;;;;;;;5.30;4.87;;;;;;;;;;5097949;28;20664;-57
2022/03/16 11:03:45;;;;;;;6.33;5.53;;;;;;;;;;5075285;28;20189;-56
2022/03/16 11:06:12;;;;;;;6.53;5.50;;;;;;;;;;5081000;28;20282;-57
2022/03/16 11:08:39;;;;;;;5.50;5.00;;;;;;;;;;5067809;28;20588;-56
2022/03/16 11:13:28;;;;;;;5.93;5.33;;;;;;;;;;5069907;28;20187;-55
2022/03/16 11:13:51;;;;;;;5.30;4.80;;;;;;;;;;5091977;28;20522;-57
2022/03/16 11:16:20;;;;;;;5.50;5.00;;;;;;;;;;5072022;28;20190;-57
2022/03/16 11:18:48;;;;;;;6.50;4.87;;;;;;;;;;5108346;28;20182;-56
2022/03/16 11:21:17;;;;;;;5.47;4.97;;;;;;;;;;5068292;28;20210;-58
2022/03/16 11:26:49;;;;;;;5.17;4.67;;;;;;;;;;5075796;28;20245;-57
2022/03/16 11:29:27;;;;;;;5.37;4.87;;;;;;;;;;5087648;28;20176;-56
2022/03/16 11:32:08;;;;;;;5.27;4.77;;;;;;;;;;5087743;28;20168;-57
2022/03/16 11:34:35;;;;;;;5.43;4.93;;;;;;;;;;5087496;28;20184;-57
2022/03/16 11:37:03;;;;;;;4.97;4.23;;;;;;;;;;5068182;28;20180;-57
2022/03/16 11:39:39;;;;;;;5.17;4.67;;;;;;;;;;5087060;28;20176;-57
2022/03/16 11:42:07;;;;;;;4.83;4.43;;;;;;;;;;5066865;28;20171;-57
2022/03/16 11:44:34;;;;;;;5.47;4.40;;;;;;;;;;5070507;28;20202;-56
2022/03/16 11:47:09;;;;;;;4.50;4.00;;;;;;;;;;5071557;28;20211;-57
2022/03/16 11:49:38;;;;;;;4.27;3.87;;;;;;;;;;5071490;28;20507;-57
2022/03/16 11:52:05;;;;;;;4.90;4.13;;;;;;;;;;5068263;28;20605;-57
2022/03/16 11:54:49;;;;;;;6.23;4.13;;;;;;;;;;5061786;28;20631;-56
2022/03/16 11:57:35;;;;;;;5.03;4.20;;;;;;;;;;5070834;28;20249;-57
2022/03/16 12:00:14;;;;;;;4.80;4.00;;;;;;;;;;5068562;28;20655;-57
2022/03/16 12:02:41;;;;;;;4.27;3.83;;;;;;;;;;5052516;28;20180;-57
2022/03/16 12:05:14;;;;;;;3.90;3.60;;;;;;;;;;5071401;28;20192;-57
2022/03/16 12:07:40;;;;;;;4.07;3.57;;;;;;;;;;5069699;28;20716;-57
2022/03/16 12:10:11;;;;;;;4.07;3.70;;;;;;;;;;5090695;28;20172;-57
2022/03/16 12:12:53;;;;;;;4.23;3.83;;;;;;;;;;5071054;28;20230;-57
2022/03/16 12:15:27;;;;;;;4.13;3.73;;;;;;;;;;5083020;28;20631;-58
2022/03/16 12:17:56;;;;;;;4.10;3.60;;;;;;;;;;5071246;28;20163;-57
2022/03/16 12:20:26;;;;;;;3.80;3.47;;;;;;;;;;5077799;28;20668;-57
2022/03/16 12:22:56;;;;;;;4.17;3.87;;;;;;;;;;5089168;28;20320;-57
2022/03/16 12:25:27;;;;;;;3.60;3.30;;;;;;;;;;5084821;28;20191;-58
2022/03/16 12:30:41;;;;;;;3.67;3.37;;;;;;;;;;5108428;28;20532;-57
2022/03/16 12:33:07;;;;;;;4.13;3.80;;;;;;;;;;5072294;28;20199;-57
2022/03/16 12:35:36;;;;;;;3.67;3.37;;;;;;;;;;5071578;28;20205;-57
2022/03/16 12:38:02;;;;;;;3.90;3.57;;;;;;;;;;5078874;28;20176;-57
2022/03/16 12:40:29;;;;;;;3.67;3.37;;;;;;;;;;5071087;28;20172;-57
2022/03/16 12:42:56;;;;;;;4.33;3.00;;;;;;;;;;5089481;28;20172;-58
2022/03/16 12:45:28;;;;;;;4.23;3.83;;;;;;;;;;5090249;28;20184;-57
2022/03/16 12:48:08;;;;;;;4.20;3.57;;;;;;;;;;5060270;28;20550;-57
2022/03/16 12:50:34;;;;;;;3.30;3.00;;;;;;;;;;5058619;28;20468;-58
2022/03/16 12:53:01;;;;;;;3.83;3.53;;;;;;;;;;5070986;28;20225;-58
2022/03/16 12:55:28;;;;;;;3.47;3.17;;;;;;;;;;5071068;28;20172;-57
2022/03/16 12:57:59;;;;;;;3.60;3.30;;;;;;;;;;5069080;28;20559;-57
2022/03/16 13:00:34;;;;;;;4.07;3.67;;;;;;;;;;5071776;28;20233;-58
2022/03/16 13:03:13;;;;;;;3.67;3.37;;;;;;;;;;5089391;28;20708;-58
2022/03/16 13:05:39;;;;;;;3.40;3.10;;;;;;;;;;5080394;28;20215;-59
2022/03/16 13:08:07;;;;;;;4.00;3.63;;;;;;;;;;5086657;28;20176;-58
2022/03/16 13:11:14;;;;;;;4.10;3.67;;;;;;;;;;5089362;28;20175;-58
2022/03/16 13:13:22;;;;;;;3.93;3.33;;;;;;;;;;5089349;28;20215;-58
2022/03/16 13:15:50;;;;;;;4.50;3.43;;;;;;;;;;5089583;28;20184;-58
2022/03/16 13:18:36;;;;;;;4.00;3.60;;;;;;;;;;5071469;28;20176;-58
2022/03/16 13:21:22;;;;;;;3.40;3.13;;;;;;;;;;5085714;28;20270;-57
2022/03/16 13:23:48;;;;;;;3.87;3.57;;;;;;;;;;5079895;28;20222;-57
2022/03/16 13:26:15;;;;;;;3.90;3.47;;;;;;;;;;5069558;28;20199;-58
2022/03/16 13:28:42;;;;;;;3.37;3.07;;;;;;;;;;5070856;28;20604;-57
2022/03/16 13:31:09;;;;;;;4.33;3.93;;;;;;;;;;5082442;28;20169;-57
2022/03/16 13:33:35;;;;;;;3.33;3.00;;;;;;;;;;5068838;28;20381;-57
2022/03/16 13:36:10;;;;;;;3.70;3.40;;;;;;;;;;5071956;28;20643;-57
2022/03/16 13:38:37;;;;;;;4.17;3.10;;;;;;;;;;5080457;28;20245;-57
2022/03/16 13:41:12;;;;;;;3.50;3.20;;;;;;;;;;5088448;28;20186;-56
2022/03/16 13:43:39;;;;;;;3.37;3.07;;;;;;;;;;5076215;28;20208;-57
2022/03/16 13:46:13;;;;;;;3.60;3.30;;;;;;;;;;5089094;28;20192;-56
2022/03/16 13:48:40;;;;;;;4.17;3.30;;;;;;;;;;5088912;28;20290;-57
2022/03/16 13:51:07;;;;;;;3.50;3.20;;;;;;;;;;5086715;28;20188;-56
2022/03/16 13:53:47;;;;;;;4.00;3.63;;;;;;;;;;5087699;28;20701;-58
2022/03/16 13:56:23;;;;;;;3.40;3.10;;;;;;;;;;5088973;28;20716;-57
2022/03/16 13:58:52;;;;;;;3.83;2.97;;;;;;;;;;5095299;28;20266;-57
2022/03/16 14:01:20;;;;;;;3.73;3.37;;;;;;;;;;5094231;28;20198;-57
2022/03/16 14:03:46;;;;;;;3.13;2.83;;;;;;;;;;5078077;28;20180;-57
2022/03/16 14:06:14;;;;;;;3.60;3.30;;;;;;;;;;5083294;28;20192;-57
2022/03/16 14:08:40;;;;;;;3.20;2.90;;;;;;;;;;5084345;28;20586;-57
2022/03/16 14:11:06;;;;;;;3.50;3.20;;;;;;;;;;5058924;28;20176;-57
2022/03/16 14:13:40;;;;;;;3.50;3.20;;;;;;;;;;5069809;28;20344;-56
2022/03/16 14:16:13;;;;;;;3.47;3.17;;;;;;;;;;5087478;28;20232;-57
2022/03/16 14:18:40;;;;;;;3.90;3.57;;;;;;;;;;5067763;28;20190;-58
2022/03/16 14:21:10;;;;;;;3.73;3.43;;;;;;;;;;5067421;28;20186;-57
2022/03/16 14:23:37;;;;;;;4.07;3.67;;;;;;;;;;5068803;28;20183;-57
2022/03/16 14:26:04;;;;;;;3.97;3.67;;;;;;;;;;5067357;28;20212;-57
2022/03/16 14:28:31;;;;;;;3.97;3.57;;;;;;;;;;5079332;28;20571;-57
2022/03/16 14:30:57;;;;;;;5.63;3.97;;;;;;;;;;5104499;28;20168;-56
2022/03/16 14:33:25;;;;;;;3.87;3.57;;;;;;;;;;5084496;28;20203;-56
2022/03/16 14:35:56;;;;;;;4.10;3.63;;;;;;;;;;5053106;28;20248;-57
2022/03/16 14:38:22;;;;;;;4.03;3.63;;;;;;;;;;5081645;28;20161;-57
2022/03/16 14:40:55;;;;;;;4.00;3.70;;;;;;;;;;5058523;28;20591;-58
2022/03/16 14:43:22;;;;;;;4.57;3.33;;;;;;;;;;5102908;28;20634;-56
2022/03/16 14:45:48;;;;;;;3.93;3.53;;;;;;;;;;5105813;28;20670;-57
2022/03/16 14:48:14;;;;;;;3.60;3.30;;;;;;;;;;5098740;28;20699;-57
2022/03/16 14:50:40;;;;;;;3.77;3.30;;;;;;;;;;5106828;28;20258;-58
2022/03/16 14:53:08;;;;;;;4.07;3.67;;;;;;;;;;5083475;28;20184;-57
2022/03/16 14:55:34;;;;;;;3.60;3.20;;;;;;;;;;5086466;28;20544;-57
2022/03/16 14:58:01;;;;;;;4.10;3.70;;;;;;;;;;5078999;28;20694;-57